sensor_id;sensor_type;location;lat;lon;timestamp;temperature;humidity
40960;DHT22;27842;52.272;8.052;2023-09-08T00:01:37;23.20;83.90
40960;DHT22;27842;52.272;8.052;2023-09-08T00:04:03;23.20;84.00
40960;DHT22;27842;52.272;8.052;2023-09-08T00:06:29;23.20;84.10
40960;DHT22;27842;52.272;8.052;2023-09-08T00:08:55;23.20;84.10
40960;DHT22;27842;52.272;8.052;2023-09-08T00:11:20;23.10;84.10
40960;DHT22;27842;52.272;8.052;2023-09-08T00:13:46;23.10;84.20
40960;DHT22;27842;52.272;8.052;2023-09-08T00:16:11;23.00;84.20
40960;DHT22;27842;52.272;8.052;2023-09-08T00:18:37;23.10;84.30
40960;DHT22;27842;52.272;8.052;2023-09-08T00:21:03;23.00;84.60
40960;DHT22;27842;52.272;8.052;2023-09-08T00:23:28;23.00;84.40
40960;DHT22;27842;52.272;8.052;2023-09-08T00:25:54;22.90;84.50
40960;DHT22;27842;52.272;8.052;2023-09-08T00:28:19;22.90;84.50
40960;DHT22;27842;52.272;8.052;2023-09-08T00:30:45;22.90;84.60
40960;DHT22;27842;52.272;8.052;2023-09-08T00:33:11;22.90;84.60
40960;DHT22;27842;52.272;8.052;2023-09-08T00:35:39;22.90;84.60
40960;DHT22;27842;52.272;8.052;2023-09-08T00:38:04;22.80;85.20
40960;DHT22;27842;52.272;8.052;2023-09-08T00:40:30;22.80;84.70
40960;DHT22;27842;52.272;8.052;2023-09-08T00:42:56;22.80;84.70
40960;DHT22;27842;52.272;8.052;2023-09-08T00:45:22;22.70;84.80
40960;DHT22;27842;52.272;8.052;2023-09-08T00:47:48;22.80;84.80
40960;DHT22;27842;52.272;8.052;2023-09-08T00:50:13;22.70;84.70
40960;DHT22;27842;52.272;8.052;2023-09-08T00:52:39;22.70;84.70
40960;DHT22;27842;52.272;8.052;2023-09-08T00:55:05;22.70;84.70
40960;DHT22;27842;52.272;8.052;2023-09-08T00:57:31;22.70;84.80
40960;DHT22;27842;52.272;8.052;2023-09-08T00:59:57;22.60;84.80
40960;DHT22;27842;52.272;8.052;2023-09-08T01:02:23;22.60;84.90
40960;DHT22;27842;52.272;8.052;2023-09-08T01:04:49;22.60;85.00
40960;DHT22;27842;52.272;8.052;2023-09-08T01:07:15;22.50;85.00
40960;DHT22;27842;52.272;8.052;2023-09-08T01:09:41;22.50;85.00
40960;DHT22;27842;52.272;8.052;2023-09-08T01:12:07;22.50;85.10
40960;DHT22;27842;52.272;8.052;2023-09-08T01:14:33;22.50;85.20
40960;DHT22;27842;52.272;8.052;2023-09-08T01:16:59;22.40;85.20
40960;DHT22;27842;52.272;8.052;2023-09-08T01:19:25;22.40;85.30
40960;DHT22;27842;52.272;8.052;2023-09-08T01:25:12;22.40;85.40
40960;DHT22;27842;52.272;8.052;2023-09-08T01:27:40;22.30;85.50
40960;DHT22;27842;52.272;8.052;2023-09-08T01:30:09;22.30;85.60
40960;DHT22;27842;52.272;8.052;2023-09-08T01:32:35;22.20;85.70
40960;DHT22;27842;52.272;8.052;2023-09-08T01:35:01;22.20;86.40
40960;DHT22;27842;52.272;8.052;2023-09-08T01:37:27;22.20;85.80
40960;DHT22;27842;52.272;8.052;2023-09-08T01:39:53;22.10;85.80
40960;DHT22;27842;52.272;8.052;2023-09-08T01:42:19;22.10;85.90
40960;DHT22;27842;52.272;8.052;2023-09-08T01:44:44;22.00;85.90
40960;DHT22;27842;52.272;8.052;2023-09-08T01:47:10;22.00;85.90
40960;DHT22;27842;52.272;8.052;2023-09-08T01:49:35;22.00;86.10
40960;DHT22;27842;52.272;8.052;2023-09-08T01:52:01;21.90;86.10
40960;DHT22;27842;52.272;8.052;2023-09-08T01:54:26;21.90;86.20
40960;DHT22;27842;52.272;8.052;2023-09-08T01:56:52;21.90;86.50
40960;DHT22;27842;52.272;8.052;2023-09-08T01:59:18;21.80;86.40
40960;DHT22;27842;52.272;8.052;2023-09-08T02:01:43;21.80;86.50
40960;DHT22;27842;52.272;8.052;2023-09-08T02:04:09;21.70;86.60
40960;DHT22;27842;52.272;8.052;2023-09-08T02:06:34;21.80;86.60
40960;DHT22;27842;52.272;8.052;2023-09-08T02:09:00;21.80;86.60
40960;DHT22;27842;52.272;8.052;2023-09-08T02:11:26;21.70;86.60
40960;DHT22;27842;52.272;8.052;2023-09-08T02:13:52;21.70;86.60
40960;DHT22;27842;52.272;8.052;2023-09-08T02:16:17;21.70;86.60
40960;DHT22;27842;52.272;8.052;2023-09-08T02:18:44;21.70;86.60
40960;DHT22;27842;52.272;8.052;2023-09-08T02:21:10;21.70;86.60
40960;DHT22;27842;52.272;8.052;2023-09-08T02:23:36;21.70;86.70
40960;DHT22;27842;52.272;8.052;2023-09-08T02:26:02;21.70;86.70
40960;DHT22;27842;52.272;8.052;2023-09-08T02:28:28;21.70;86.70
40960;DHT22;27842;52.272;8.052;2023-09-08T02:30:54;21.70;86.70
40960;DHT22;27842;52.272;8.052;2023-09-08T02:33:19;21.60;87.40
40960;DHT22;27842;52.272;8.052;2023-09-08T02:35:45;21.60;86.70
40960;DHT22;27842;52.272;8.052;2023-09-08T02:38:11;21.60;86.80
40960;DHT22;27842;52.272;8.052;2023-09-08T02:40:36;21.60;86.90
40960;DHT22;27842;52.272;8.052;2023-09-08T02:43:02;21.60;87.00
40960;DHT22;27842;52.272;8.052;2023-09-08T02:45:28;21.50;86.90
40960;DHT22;27842;52.272;8.052;2023-09-08T02:47:54;21.50;86.90
40960;DHT22;27842;52.272;8.052;2023-09-08T02:50:20;21.50;87.00
40960;DHT22;27842;52.272;8.052;2023-09-08T02:52:46;21.50;87.00
40960;DHT22;27842;52.272;8.052;2023-09-08T02:55:12;21.50;87.00
40960;DHT22;27842;52.272;8.052;2023-09-08T02:57:38;21.50;87.00
40960;DHT22;27842;52.272;8.052;2023-09-08T03:00:05;21.50;87.10
40960;DHT22;27842;52.272;8.052;2023-09-08T03:02:32;21.40;87.20
40960;DHT22;27842;52.272;8.052;2023-09-08T03:04:57;21.40;87.20
40960;DHT22;27842;52.272;8.052;2023-09-08T03:07:23;21.40;87.20
40960;DHT22;27842;52.272;8.052;2023-09-08T03:09:49;21.40;87.20
40960;DHT22;27842;52.272;8.052;2023-09-08T03:12:14;21.40;87.20
40960;DHT22;27842;52.272;8.052;2023-09-08T03:14:40;21.40;87.30
40960;DHT22;27842;52.272;8.052;2023-09-08T03:17:05;21.30;87.30
40960;DHT22;27842;52.272;8.052;2023-09-08T03:19:31;21.30;87.40
40960;DHT22;27842;52.272;8.052;2023-09-08T03:21:57;21.30;87.40
40960;DHT22;27842;52.272;8.052;2023-09-08T03:24:23;21.30;87.60
40960;DHT22;27842;52.272;8.052;2023-09-08T03:26:49;21.20;87.60
40960;DHT22;27842;52.272;8.052;2023-09-08T03:29:15;21.20;87.60
40960;DHT22;27842;52.272;8.052;2023-09-08T03:31:40;21.20;87.70
40960;DHT22;27842;52.272;8.052;2023-09-08T03:34:06;21.10;87.70
40960;DHT22;27842;52.272;8.052;2023-09-08T03:36:32;21.10;87.80
40960;DHT22;27842;52.272;8.052;2023-09-08T03:39:01;21.10;87.70
40960;DHT22;27842;52.272;8.052;2023-09-08T03:41:27;21.10;87.80
40960;DHT22;27842;52.272;8.052;2023-09-08T03:43:52;21.20;87.70
40960;DHT22;27842;52.272;8.052;2023-09-08T03:46:18;21.10;87.70
40960;DHT22;27842;52.272;8.052;2023-09-08T03:48:44;21.10;87.70
40960;DHT22;27842;52.272;8.052;2023-09-08T03:51:09;21.10;87.70
40960;DHT22;27842;52.272;8.052;2023-09-08T03:53:35;21.10;87.70
40960;DHT22;27842;52.272;8.052;2023-09-08T03:56:00;21.10;87.70
40960;DHT22;27842;52.272;8.052;2023-09-08T03:58:26;21.10;87.80
40960;DHT22;27842;52.272;8.052;2023-09-08T04:00:52;21.10;87.80
40960;DHT22;27842;52.272;8.052;2023-09-08T04:03:17;21.00;87.80
40960;DHT22;27842;52.272;8.052;2023-09-08T04:05:43;21.00;87.90
40960;DHT22;27842;52.272;8.052;2023-09-08T04:08:09;21.00;87.80
40960;DHT22;27842;52.272;8.052;2023-09-08T04:10:35;21.00;87.80
40960;DHT22;27842;52.272;8.052;2023-09-08T04:13:00;21.00;87.90
40960;DHT22;27842;52.272;8.052;2023-09-08T04:15:26;21.00;87.80
40960;DHT22;27842;52.272;8.052;2023-09-08T04:17:51;21.00;87.90
40960;DHT22;27842;52.272;8.052;2023-09-08T04:20:17;21.00;87.90
40960;DHT22;27842;52.272;8.052;2023-09-08T04:22:43;21.00;87.90
40960;DHT22;27842;52.272;8.052;2023-09-08T04:25:09;20.90;88.00
40960;DHT22;27842;52.272;8.052;2023-09-08T04:27:35;20.90;88.10
40960;DHT22;27842;52.272;8.052;2023-09-08T04:30:03;20.90;88.10
40960;DHT22;27842;52.272;8.052;2023-09-08T04:32:29;20.90;88.10
40960;DHT22;27842;52.272;8.052;2023-09-08T04:34:55;20.90;88.10
40960;DHT22;27842;52.272;8.052;2023-09-08T04:37:20;20.90;88.20
40960;DHT22;27842;52.272;8.052;2023-09-08T04:39:46;20.80;88.10
40960;DHT22;27842;52.272;8.052;2023-09-08T04:42:12;20.80;88.20
40960;DHT22;27842;52.272;8.052;2023-09-08T04:44:38;20.80;88.20
40960;DHT22;27842;52.272;8.052;2023-09-08T04:47:05;20.80;88.40
40960;DHT22;27842;52.272;8.052;2023-09-08T04:49:30;20.70;88.30
40960;DHT22;27842;52.272;8.052;2023-09-08T04:51:56;20.70;88.40
40960;DHT22;27842;52.272;8.052;2023-09-08T04:54:22;20.80;88.30
40960;DHT22;27842;52.272;8.052;2023-09-08T04:56:51;20.80;88.20
40960;DHT22;27842;52.272;8.052;2023-09-08T04:59:17;20.80;88.20
40960;DHT22;27842;52.272;8.052;2023-09-08T05:01:43;20.70;88.30
40960;DHT22;27842;52.272;8.052;2023-09-08T05:04:09;20.70;88.40
40960;DHT22;27842;52.272;8.052;2023-09-08T05:06:35;20.70;88.50
40960;DHT22;27842;52.272;8.052;2023-09-08T05:09:01;20.60;88.50
40960;DHT22;27842;52.272;8.052;2023-09-08T05:11:27;20.60;88.50
40960;DHT22;27842;52.272;8.052;2023-09-08T05:13:52;20.60;88.60
40960;DHT22;27842;52.272;8.052;2023-09-08T05:16:18;20.60;88.70
40960;DHT22;27842;52.272;8.052;2023-09-08T05:18:51;20.60;88.70
40960;DHT22;27842;52.272;8.052;2023-09-08T05:21:16;20.60;88.70
40960;DHT22;27842;52.272;8.052;2023-09-08T05:23:45;20.50;88.70
40960;DHT22;27842;52.272;8.052;2023-09-08T05:26:11;20.50;88.80
40960;DHT22;27842;52.272;8.052;2023-09-08T05:28:36;20.50;88.70
40960;DHT22;27842;52.272;8.052;2023-09-08T05:31:02;20.50;88.90
40960;DHT22;27842;52.272;8.052;2023-09-08T05:33:27;20.50;88.90
40960;DHT22;27842;52.272;8.052;2023-09-08T05:35:53;20.40;88.90
40960;DHT22;27842;52.272;8.052;2023-09-08T05:38:18;20.40;88.90
40960;DHT22;27842;52.272;8.052;2023-09-08T05:40:44;20.40;88.90
40960;DHT22;27842;52.272;8.052;2023-09-08T05:43:10;20.40;88.90
40960;DHT22;27842;52.272;8.052;2023-09-08T05:45:35;20.40;89.00
40960;DHT22;27842;52.272;8.052;2023-09-08T05:48:02;20.40;88.90
40960;DHT22;27842;52.272;8.052;2023-09-08T05:50:28;20.40;88.90
40960;DHT22;27842;52.272;8.052;2023-09-08T05:52:57;20.50;89.00
40960;DHT22;27842;52.272;8.052;2023-09-08T05:55:22;20.40;89.00
40960;DHT22;27842;52.272;8.052;2023-09-08T05:57:48;20.50;89.00
40960;DHT22;27842;52.272;8.052;2023-09-08T06:00:14;20.40;89.00
40960;DHT22;27842;52.272;8.052;2023-09-08T06:02:39;20.50;89.00
40960;DHT22;27842;52.272;8.052;2023-09-08T06:05:05;20.50;89.10
40960;DHT22;27842;52.272;8.052;2023-09-08T06:07:31;20.50;89.00
40960;DHT22;27842;52.272;8.052;2023-09-08T06:09:57;20.50;89.00
40960;DHT22;27842;52.272;8.052;2023-09-08T06:12:22;20.60;89.00
40960;DHT22;27842;52.272;8.052;2023-09-08T06:14:48;20.60;89.00
40960;DHT22;27842;52.272;8.052;2023-09-08T06:17:13;20.60;89.10
40960;DHT22;27842;52.272;8.052;2023-09-08T06:19:39;20.70;89.20
40960;DHT22;27842;52.272;8.052;2023-09-08T06:22:05;20.70;89.20
40960;DHT22;27842;52.272;8.052;2023-09-08T06:24:34;20.80;89.00
40960;DHT22;27842;52.272;8.052;2023-09-08T06:27:01;20.80;89.00
40960;DHT22;27842;52.272;8.052;2023-09-08T06:29:47;20.80;88.90
40960;DHT22;27842;52.272;8.052;2023-09-08T06:32:13;20.90;88.90
40960;DHT22;27842;52.272;8.052;2023-09-08T06:34:38;20.80;88.90
40960;DHT22;27842;52.272;8.052;2023-09-08T06:37:04;20.80;88.90
40960;DHT22;27842;52.272;8.052;2023-09-08T06:39:29;20.90;88.90
40960;DHT22;27842;52.272;8.052;2023-09-08T06:41:55;20.90;88.80
40960;DHT22;27842;52.272;8.052;2023-09-08T06:44:21;20.90;88.80
40960;DHT22;27842;52.272;8.052;2023-09-08T06:46:46;21.00;88.80
40960;DHT22;27842;52.272;8.052;2023-09-08T06:49:12;21.00;88.70
40960;DHT22;27842;52.272;8.052;2023-09-08T06:51:38;21.10;88.80
40960;DHT22;27842;52.272;8.052;2023-09-08T06:54:04;21.10;88.60
40960;DHT22;27842;52.272;8.052;2023-09-08T06:56:30;21.20;88.70
40960;DHT22;27842;52.272;8.052;2023-09-08T06:58:55;21.20;88.50
40960;DHT22;27842;52.272;8.052;2023-09-08T07:01:23;21.30;88.50
40960;DHT22;27842;52.272;8.052;2023-09-08T07:03:49;21.30;88.40
40960;DHT22;27842;52.272;8.052;2023-09-08T07:06:16;21.40;88.40
40960;DHT22;27842;52.272;8.052;2023-09-08T07:08:41;21.50;88.40
40960;DHT22;27842;52.272;8.052;2023-09-08T07:11:07;21.50;88.20
40960;DHT22;27842;52.272;8.052;2023-09-08T07:13:33;21.60;88.10
40960;DHT22;27842;52.272;8.052;2023-09-08T07:15:59;21.70;87.90
40960;DHT22;27842;52.272;8.052;2023-09-08T07:18:25;21.80;87.70
40960;DHT22;27842;52.272;8.052;2023-09-08T07:20:50;21.90;87.60
40960;DHT22;27842;52.272;8.052;2023-09-08T07:23:16;22.00;87.50
40960;DHT22;27842;52.272;8.052;2023-09-08T07:25:52;22.10;87.40
40960;DHT22;27842;52.272;8.052;2023-09-08T07:28:30;22.20;87.20
40960;DHT22;27842;52.272;8.052;2023-09-08T07:31:04;22.20;87.00
40960;DHT22;27842;52.272;8.052;2023-09-08T07:33:30;22.40;87.00
40960;DHT22;27842;52.272;8.052;2023-09-08T07:36:14;22.50;86.90
40960;DHT22;27842;52.272;8.052;2023-09-08T07:38:40;22.50;86.70
40960;DHT22;27842;52.272;8.052;2023-09-08T07:41:06;22.60;86.50
40960;DHT22;27842;52.272;8.052;2023-09-08T07:43:32;22.70;86.50
40960;DHT22;27842;52.272;8.052;2023-09-08T07:45:57;22.70;86.40
40960;DHT22;27842;52.272;8.052;2023-09-08T07:48:23;22.80;86.30
40960;DHT22;27842;52.272;8.052;2023-09-08T07:50:48;22.90;86.30
40960;DHT22;27842;52.272;8.052;2023-09-08T07:53:14;22.90;86.30
40960;DHT22;27842;52.272;8.052;2023-09-08T07:55:40;23.00;86.30
40960;DHT22;27842;52.272;8.052;2023-09-08T07:58:05;23.00;86.30
40960;DHT22;27842;52.272;8.052;2023-09-08T08:00:31;23.10;86.20
40960;DHT22;27842;52.272;8.052;2023-09-08T08:02:57;23.10;86.30
40960;DHT22;27842;52.272;8.052;2023-09-08T08:05:25;23.20;86.30
40960;DHT22;27842;52.272;8.052;2023-09-08T08:07:51;23.20;86.10
40960;DHT22;27842;52.272;8.052;2023-09-08T08:10:17;23.30;86.20
40960;DHT22;27842;52.272;8.052;2023-09-08T08:12:43;23.30;86.10
40960;DHT22;27842;52.272;8.052;2023-09-08T08:15:09;23.40;86.10
40960;DHT22;27842;52.272;8.052;2023-09-08T08:17:36;23.50;86.10
40960;DHT22;27842;52.272;8.052;2023-09-08T08:20:04;23.50;86.10
40960;DHT22;27842;52.272;8.052;2023-09-08T08:22:34;23.50;86.10
40960;DHT22;27842;52.272;8.052;2023-09-08T08:25:00;23.50;86.20
40960;DHT22;27842;52.272;8.052;2023-09-08T08:27:26;23.60;86.20
40960;DHT22;27842;52.272;8.052;2023-09-08T08:29:52;23.70;86.40
40960;DHT22;27842;52.272;8.052;2023-09-08T08:32:17;23.70;86.30
40960;DHT22;27842;52.272;8.052;2023-09-08T08:34:43;23.80;86.40
40960;DHT22;27842;52.272;8.052;2023-09-08T08:37:10;23.80;86.50
40960;DHT22;27842;52.272;8.052;2023-09-08T08:39:36;24.00;87.00
40960;DHT22;27842;52.272;8.052;2023-09-08T08:42:11;24.00;86.20
40960;DHT22;27842;52.272;8.052;2023-09-08T08:44:38;24.10;86.10
40960;DHT22;27842;52.272;8.052;2023-09-08T08:47:08;24.20;85.90
40960;DHT22;27842;52.272;8.052;2023-09-08T08:49:36;24.40;85.90
40960;DHT22;27842;52.272;8.052;2023-09-08T08:52:02;24.50;85.60
40960;DHT22;27842;52.272;8.052;2023-09-08T08:54:35;24.60;85.30
40960;DHT22;27842;52.272;8.052;2023-09-08T08:57:03;24.80;85.10
40960;DHT22;27842;52.272;8.052;2023-09-08T08:59:30;24.90;84.80
40960;DHT22;27842;52.272;8.052;2023-09-08T09:01:56;25.10;84.30
40960;DHT22;27842;52.272;8.052;2023-09-08T09:04:23;25.20;83.90
40960;DHT22;27842;52.272;8.052;2023-09-08T09:06:49;25.40;83.60
40960;DHT22;27842;52.272;8.052;2023-09-08T09:09:16;25.40;83.20
40960;DHT22;27842;52.272;8.052;2023-09-08T09:11:41;25.50;83.20
40960;DHT22;27842;52.272;8.052;2023-09-08T09:14:08;25.70;83.00
40960;DHT22;27842;52.272;8.052;2023-09-08T09:16:41;25.80;82.40
40960;DHT22;27842;52.272;8.052;2023-09-08T09:19:07;26.00;82.40
40960;DHT22;27842;52.272;8.052;2023-09-08T09:21:51;26.10;82.30
40960;DHT22;27842;52.272;8.052;2023-09-08T09:24:37;26.20;82.00
40960;DHT22;27842;52.272;8.052;2023-09-08T09:27:04;26.20;81.80
40960;DHT22;27842;52.272;8.052;2023-09-08T09:29:31;26.30;81.80
40960;DHT22;27842;52.272;8.052;2023-09-08T09:32:02;26.40;81.60
40960;DHT22;27842;52.272;8.052;2023-09-08T09:34:29;26.40;81.50
40960;DHT22;27842;52.272;8.052;2023-09-08T09:36:55;26.50;81.30
40960;DHT22;27842;52.272;8.052;2023-09-08T09:39:23;26.50;81.20
40960;DHT22;27842;52.272;8.052;2023-09-08T09:41:54;26.50;80.90
40960;DHT22;27842;52.272;8.052;2023-09-08T09:44:21;26.60;81.00
40960;DHT22;27842;52.272;8.052;2023-09-08T09:46:48;26.70;80.70
40960;DHT22;27842;52.272;8.052;2023-09-08T09:49:14;26.70;80.70
40960;DHT22;27842;52.272;8.052;2023-09-08T09:51:43;26.70;80.60
40960;DHT22;27842;52.272;8.052;2023-09-08T09:54:09;26.80;80.60
40960;DHT22;27842;52.272;8.052;2023-09-08T09:56:37;26.80;80.50
40960;DHT22;27842;52.272;8.052;2023-09-08T09:59:03;26.90;80.50
40960;DHT22;27842;52.272;8.052;2023-09-08T10:01:31;26.90;80.50
40960;DHT22;27842;52.272;8.052;2023-09-08T10:03:58;27.00;80.40
40960;DHT22;27842;52.272;8.052;2023-09-08T10:06:25;27.10;80.30
40960;DHT22;27842;52.272;8.052;2023-09-08T10:08:52;27.10;80.10
40960;DHT22;27842;52.272;8.052;2023-09-08T10:11:21;27.10;80.10
40960;DHT22;27842;52.272;8.052;2023-09-08T10:13:50;27.20;80.10
40960;DHT22;27842;52.272;8.052;2023-09-08T10:16:19;27.20;79.80
40960;DHT22;27842;52.272;8.052;2023-09-08T10:18:47;27.30;79.90
40960;DHT22;27842;52.272;8.052;2023-09-08T10:21:16;27.30;79.80
40960;DHT22;27842;52.272;8.052;2023-09-08T10:23:54;27.30;79.70
40960;DHT22;27842;52.272;8.052;2023-09-08T10:26:26;27.40;79.60
40960;DHT22;27842;52.272;8.052;2023-09-08T10:28:54;27.40;79.40
40960;DHT22;27842;52.272;8.052;2023-09-08T10:31:24;27.50;79.50
40960;DHT22;27842;52.272;8.052;2023-09-08T10:33:52;27.50;79.50
40960;DHT22;27842;52.272;8.052;2023-09-08T10:36:18;27.60;79.40
40960;DHT22;27842;52.272;8.052;2023-09-08T10:38:44;27.60;79.50
40960;DHT22;27842;52.272;8.052;2023-09-08T10:43:56;27.50;79.40
40960;DHT22;27842;52.272;8.052;2023-09-08T10:46:26;27.60;79.40
40960;DHT22;27842;52.272;8.052;2023-09-08T10:49:00;27.50;78.40
40960;DHT22;27842;52.272;8.052;2023-09-08T10:51:26;27.60;78.50
40960;DHT22;27842;52.272;8.052;2023-09-08T10:53:52;27.70;78.20
40960;DHT22;27842;52.272;8.052;2023-09-08T10:56:18;27.70;78.10
40960;DHT22;27842;52.272;8.052;2023-09-08T10:58:49;27.70;77.70
40960;DHT22;27842;52.272;8.052;2023-09-08T11:01:17;27.70;77.30
40960;DHT22;27842;52.272;8.052;2023-09-08T11:03:47;27.80;77.50
40960;DHT22;27842;52.272;8.052;2023-09-08T11:06:18;27.80;77.40
40960;DHT22;27842;52.272;8.052;2023-09-08T11:08:45;27.80;77.20
40960;DHT22;27842;52.272;8.052;2023-09-08T11:11:14;27.70;77.20
40960;DHT22;27842;52.272;8.052;2023-09-08T11:13:40;27.80;77.30
40960;DHT22;27842;52.272;8.052;2023-09-08T11:16:06;27.80;76.80
40960;DHT22;27842;52.272;8.052;2023-09-08T11:18:33;27.80;77.00
40960;DHT22;27842;52.272;8.052;2023-09-08T11:21:00;27.80;76.80
40960;DHT22;27842;52.272;8.052;2023-09-08T11:23:27;27.80;76.80
40960;DHT22;27842;52.272;8.052;2023-09-08T11:25:54;27.80;76.40
40960;DHT22;27842;52.272;8.052;2023-09-08T11:28:23;27.90;76.60
40960;DHT22;27842;52.272;8.052;2023-09-08T11:30:49;27.90;75.70
40960;DHT22;27842;52.272;8.052;2023-09-08T11:33:16;27.90;76.30
40960;DHT22;27842;52.272;8.052;2023-09-08T11:35:45;27.90;75.90
40960;DHT22;27842;52.272;8.052;2023-09-08T11:38:11;27.90;75.90
40960;DHT22;27842;52.272;8.052;2023-09-08T11:40:37;27.90;70.50
40960;DHT22;27842;52.272;8.052;2023-09-08T11:43:04;27.90;75.60
40960;DHT22;27842;52.272;8.052;2023-09-08T11:45:33;28.00;75.50
40960;DHT22;27842;52.272;8.052;2023-09-08T11:47:59;28.10;74.90
40960;DHT22;27842;52.272;8.052;2023-09-08T11:50:24;28.10;74.80
40960;DHT22;27842;52.272;8.052;2023-09-08T11:52:52;28.10;74.90
40960;DHT22;27842;52.272;8.052;2023-09-08T11:55:20;28.10;74.80
40960;DHT22;27842;52.272;8.052;2023-09-08T11:57:48;28.20;74.80
40960;DHT22;27842;52.272;8.052;2023-09-08T12:00:15;28.30;74.80
40960;DHT22;27842;52.272;8.052;2023-09-08T12:02:44;28.30;74.60
40960;DHT22;27842;52.272;8.052;2023-09-08T12:05:26;28.40;74.40
40960;DHT22;27842;52.272;8.052;2023-09-08T12:07:54;28.50;71.20
40960;DHT22;27842;52.272;8.052;2023-09-08T12:10:20;28.60;74.20
40960;DHT22;27842;52.272;8.052;2023-09-08T12:12:49;28.60;74.20
40960;DHT22;27842;52.272;8.052;2023-09-08T12:15:37;28.70;74.20
40960;DHT22;27842;52.272;8.052;2023-09-08T12:20:30;29.00;73.90
40960;DHT22;27842;52.272;8.052;2023-09-08T12:23:05;29.10;73.80
40960;DHT22;27842;52.272;8.052;2023-09-08T12:25:31;29.30;73.70
40960;DHT22;27842;52.272;8.052;2023-09-08T12:28:00;29.40;73.60
40960;DHT22;27842;52.272;8.052;2023-09-08T12:30:27;29.50;73.30
40960;DHT22;27842;52.272;8.052;2023-09-08T12:32:59;29.80;73.00
40960;DHT22;27842;52.272;8.052;2023-09-08T12:35:26;30.00;72.80
40960;DHT22;27842;52.272;8.052;2023-09-08T12:37:57;30.30;72.00
40960;DHT22;27842;52.272;8.052;2023-09-08T12:40:28;30.60;71.10
40960;DHT22;27842;52.272;8.052;2023-09-08T12:42:54;30.90;71.00
40960;DHT22;27842;52.272;8.052;2023-09-08T12:45:21;31.10;70.20
40960;DHT22;27842;52.272;8.052;2023-09-08T12:47:48;31.30;69.80
40960;DHT22;27842;52.272;8.052;2023-09-08T12:50:13;31.50;69.50
40960;DHT22;27842;52.272;8.052;2023-09-08T12:52:39;31.70;69.10
40960;DHT22;27842;52.272;8.052;2023-09-08T12:55:05;31.80;68.90
40960;DHT22;27842;52.272;8.052;2023-09-08T12:57:31;32.00;68.80
40960;DHT22;27842;52.272;8.052;2023-09-08T12:59:57;32.20;68.60
40960;DHT22;27842;52.272;8.052;2023-09-08T13:02:22;32.40;68.30
40960;DHT22;27842;52.272;8.052;2023-09-08T13:04:48;32.60;67.80
40960;DHT22;27842;52.272;8.052;2023-09-08T13:07:17;32.80;68.20
40960;DHT22;27842;52.272;8.052;2023-09-08T13:09:43;33.00;66.80
40960;DHT22;27842;52.272;8.052;2023-09-08T13:12:09;33.00;66.90
40960;DHT22;27842;52.272;8.052;2023-09-08T13:14:36;33.20;66.50
40960;DHT22;27842;52.272;8.052;2023-09-08T13:17:02;33.20;66.00
40960;DHT22;27842;52.272;8.052;2023-09-08T13:19:27;33.30;66.00
40960;DHT22;27842;52.272;8.052;2023-09-08T13:21:54;33.40;66.00
40960;DHT22;27842;52.272;8.052;2023-09-08T13:24:20;33.60;65.70
40960;DHT22;27842;52.272;8.052;2023-09-08T13:26:47;33.80;65.20
40960;DHT22;27842;52.272;8.052;2023-09-08T13:29:13;33.90;65.30
40960;DHT22;27842;52.272;8.052;2023-09-08T13:31:39;34.00;64.70
40960;DHT22;27842;52.272;8.052;2023-09-08T13:34:05;34.10;64.40
40960;DHT22;27842;52.272;8.052;2023-09-08T13:36:31;34.10;64.40
40960;DHT22;27842;52.272;8.052;2023-09-08T13:38:57;34.30;64.50
40960;DHT22;27842;52.272;8.052;2023-09-08T13:41:24;34.40;64.50
40960;DHT22;27842;52.272;8.052;2023-09-08T13:43:49;34.40;64.90
40960;DHT22;27842;52.272;8.052;2023-09-08T13:46:15;34.50;64.00
40960;DHT22;27842;52.272;8.052;2023-09-08T13:48:41;34.60;63.90
40960;DHT22;27842;52.272;8.052;2023-09-08T13:51:07;34.70;62.70
40960;DHT22;27842;52.272;8.052;2023-09-08T13:53:32;34.80;62.60
40960;DHT22;27842;52.272;8.052;2023-09-08T13:55:59;34.70;62.60
40960;DHT22;27842;52.272;8.052;2023-09-08T13:58:25;34.70;62.70
40960;DHT22;27842;52.272;8.052;2023-09-08T14:00:51;34.80;61.50
40960;DHT22;27842;52.272;8.052;2023-09-08T14:03:20;34.60;61.90
40960;DHT22;27842;52.272;8.052;2023-09-08T14:05:45;34.50;61.80
40960;DHT22;27842;52.272;8.052;2023-09-08T14:08:11;34.30;62.20
40960;DHT22;27842;52.272;8.052;2023-09-08T14:10:36;34.20;61.90
40960;DHT22;27842;52.272;8.052;2023-09-08T14:13:02;34.00;61.80
40960;DHT22;27842;52.272;8.052;2023-09-08T14:15:28;33.90;62.10
40960;DHT22;27842;52.272;8.052;2023-09-08T14:17:53;33.80;61.80
40960;DHT22;27842;52.272;8.052;2023-09-08T14:20:19;33.60;61.70
40960;DHT22;27842;52.272;8.052;2023-09-08T14:22:44;33.50;61.90
40960;DHT22;27842;52.272;8.052;2023-09-08T14:25:10;33.50;62.30
40960;DHT22;27842;52.272;8.052;2023-09-08T14:27:36;33.40;62.00
40960;DHT22;27842;52.272;8.052;2023-09-08T14:30:03;33.40;62.30
40960;DHT22;27842;52.272;8.052;2023-09-08T14:32:31;33.40;62.30
40960;DHT22;27842;52.272;8.052;2023-09-08T14:34:57;33.30;62.10
40960;DHT22;27842;52.272;8.052;2023-09-08T14:37:22;33.30;62.20
40960;DHT22;27842;52.272;8.052;2023-09-08T14:39:48;33.20;62.10
40960;DHT22;27842;52.272;8.052;2023-09-08T14:42:14;33.20;62.50
40960;DHT22;27842;52.272;8.052;2023-09-08T14:44:41;33.00;62.40
40960;DHT22;27842;52.272;8.052;2023-09-08T14:47:06;33.00;62.70
40960;DHT22;27842;52.272;8.052;2023-09-08T14:49:32;32.80;62.80
40960;DHT22;27842;52.272;8.052;2023-09-08T14:51:58;32.70;63.00
40960;DHT22;27842;52.272;8.052;2023-09-08T14:54:24;32.60;62.90
40960;DHT22;27842;52.272;8.052;2023-09-08T14:56:50;32.50;63.10
40960;DHT22;27842;52.272;8.052;2023-09-08T14:59:15;32.30;63.30
40960;DHT22;27842;52.272;8.052;2023-09-08T15:01:41;32.10;63.20
40960;DHT22;27842;52.272;8.052;2023-09-08T15:04:08;32.00;63.60
40960;DHT22;27842;52.272;8.052;2023-09-08T15:06:34;31.90;63.70
40960;DHT22;27842;52.272;8.052;2023-09-08T15:09:00;31.80;63.90
40960;DHT22;27842;52.272;8.052;2023-09-08T15:11:25;31.70;63.80
40960;DHT22;27842;52.272;8.052;2023-09-08T15:13:51;31.50;63.90
40960;DHT22;27842;52.272;8.052;2023-09-08T15:16:17;31.50;64.10
40960;DHT22;27842;52.272;8.052;2023-09-08T15:18:43;31.40;64.30
40960;DHT22;27842;52.272;8.052;2023-09-08T15:21:08;31.30;63.90
40960;DHT22;27842;52.272;8.052;2023-09-08T15:23:34;31.20;64.30
40960;DHT22;27842;52.272;8.052;2023-09-08T15:26:00;31.00;64.50
40960;DHT22;27842;52.272;8.052;2023-09-08T15:28:26;31.00;64.60
40960;DHT22;27842;52.272;8.052;2023-09-08T15:30:53;30.90;64.70
40960;DHT22;27842;52.272;8.052;2023-09-08T15:33:19;30.80;64.80
40960;DHT22;27842;52.272;8.052;2023-09-08T15:35:49;30.70;65.00